Time;durP1;ratioP1;P1;durP2;ratioP2;P2;SDS_P1;SDS_P2;PMS_P1;PMS_P2;Temp;Humidity;BMP_temperature;BMP_pressure;BME280_temperature;BME280_humidity;BME280_pressure;Samples;Min_cycle;Max_cycle;Signal;HPM_P1;HPM_P2
2022/07/18 00:01:43;;;;;;;0.10;0.10;;;14.70;99.90;;;;;;5071126;28;20048;-81
2022/07/18 00:04:08;;;;;;;0.50;0.45;;;14.70;99.90;;;;;;5072023;28;20052;-81
2022/07/18 00:06:35;;;;;;;0.10;0.10;;;14.60;99.90;;;;;;5072429;28;20045;-81
2022/07/18 00:09:01;;;;;;;0.00;0.00;;;14.60;99.90;;;;;;5055240;28;20041;-81
2022/07/18 00:11:26;;;;;;;0.00;0.00;;;14.60;99.90;;;;;;5055419;28;20042;-81
2022/07/18 00:13:52;;;;;;;0.17;0.17;;;14.60;99.90;;;;;;5054812;28;20054;-81
2022/07/18 00:16:18;;;;;;;0.20;0.20;;;14.60;99.90;;;;;;5072296;28;20569;-81
2022/07/18 00:18:44;;;;;;;0.00;0.00;;;14.60;99.90;;;;;;5071912;28;20037;-81
2022/07/18 00:21:10;;;;;;;0.10;0.10;;;14.50;99.90;;;;;;5072445;28;20041;-81
2022/07/18 00:23:36;;;;;;;0.25;0.25;;;14.50;99.90;;;;;;5072016;28;20044;-81
2022/07/18 00:26:03;;;;;;;5.82;0.80;;;14.50;99.90;;;;;;5072373;28;20041;-81
2022/07/18 00:28:29;;;;;;;0.10;0.10;;;14.50;99.90;;;;;;5071593;28;20075;-81
2022/07/18 00:30:55;;;;;;;0.90;0.63;;;14.50;99.90;;;;;;5071688;28;20096;-82
2022/07/18 00:33:20;;;;;;;0.13;0.13;;;14.50;99.90;;;;;;5055460;28;20055;-82
2022/07/18 00:35:46;;;;;;;0.00;0.00;;;14.50;99.90;;;;;;5070234;28;20490;-82
2022/07/18 00:38:12;;;;;;;0.43;0.43;;;14.40;99.90;;;;;;5071798;28;20037;-82
2022/07/18 00:40:38;;;;;;;0.20;0.10;;;14.40;99.90;;;;;;5055371;28;20047;-82
2022/07/18 00:43:04;;;;;;;1.08;0.40;;;14.40;99.90;;;;;;5046649;28;20047;-82
2022/07/18 00:45:32;;;;;;;0.03;0.03;;;14.40;99.90;;;;;;5054344;28;20068;-82
2022/07/18 00:47:58;;;;;;;0.05;0.05;;;14.30;99.90;;;;;;5071635;28;20048;-85
2022/07/18 00:50:24;;;;;;;0.17;0.15;;;14.30;99.90;;;;;;5055208;28;20131;-86
2022/07/18 00:52:50;;;;;;;0.30;0.30;;;14.30;99.90;;;;;;5054813;28;20045;-86
2022/07/18 00:55:16;;;;;;;0.10;0.10;;;14.30;99.90;;;;;;5071284;28;20124;-86
2022/07/18 00:57:43;;;;;;;0.00;0.00;;;14.20;99.90;;;;;;5054590;28;20076;-86
2022/07/18 01:02:57;;;;;;;0.13;0.13;;;14.20;99.90;;;;;;5071879;28;20040;-84
2022/07/18 01:05:23;;;;;;;0.40;0.40;;;14.10;99.90;;;;;;5037586;28;20036;-83
2022/07/18 01:07:51;;;;;;;0.10;0.10;;;14.10;99.90;;;;;;5070201;28;20135;-83
2022/07/18 01:10:19;;;;;;;0.88;0.20;;;14.10;99.90;;;;;;5075043;28;20048;-83
2022/07/18 01:12:46;;;;;;;0.00;0.00;;;14.10;99.90;;;;;;5075110;28;20040;-83
2022/07/18 01:15:15;;;;;;;0.00;0.00;;;14.10;99.90;;;;;;5074700;28;20398;-84
2022/07/18 01:17:41;;;;;;;1.35;0.30;;;14.00;99.90;;;;;;5057078;28;20045;-83
2022/07/18 01:20:07;;;;;;;0.00;0.00;;;14.10;99.90;;;;;;5041539;28;20040;-81
2022/07/18 01:22:33;;;;;;;0.00;0.00;;;14.10;99.90;;;;;;5075750;28;20498;-80
2022/07/18 01:24:59;;;;;;;0.50;0.43;;;14.10;99.90;;;;;;5058495;28;20040;-81
2022/07/18 01:27:25;;;;;;;0.20;0.20;;;14.10;99.90;;;;;;5074634;28;20048;-81
2022/07/18 01:29:55;;;;;;;0.10;0.10;;;14.20;99.90;;;;;;5063806;28;20391;-81
2022/07/18 01:32:20;;;;;;;0.20;0.20;;;14.20;99.90;;;;;;5022338;28;20048;-81
2022/07/18 01:34:47;;;;;;;0.35;0.35;;;14.20;99.90;;;;;;5038111;28;20045;-81
2022/07/18 01:37:15;;;;;;;0.30;0.30;;;14.30;99.90;;;;;;5037663;28;20049;-81
2022/07/18 01:39:41;;;;;;;0.20;0.20;;;14.20;99.90;;;;;;5054940;28;20360;-81
2022/07/18 01:42:09;;;;;;;0.10;0.10;;;14.30;99.90;;;;;;5038193;28;20043;-81
2022/07/18 01:44:35;;;;;;;0.00;0.00;;;14.30;99.90;;;;;;5054610;28;20041;-81
2022/07/18 01:47:03;;;;;;;0.10;0.10;;;14.30;99.90;;;;;;5054796;28;20041;-81
2022/07/18 01:49:32;;;;;;;0.25;0.25;;;14.30;99.90;;;;;;5040966;28;20048;-81
2022/07/18 01:51:58;;;;;;;0.38;0.38;;;14.30;99.90;;;;;;5054712;28;20422;-81
2022/07/18 01:54:29;;;;;;;0.20;0.20;;;14.30;99.90;;;;;;5036432;28;20103;-82
2022/07/18 01:56:55;;;;;;;0.20;0.20;;;14.20;99.90;;;;;;5020991;28;20040;-82
2022/07/18 01:59:22;;;;;;;0.40;0.20;;;14.10;99.90;;;;;;5034741;28;20048;-82
2022/07/18 02:01:48;;;;;;;0.32;0.32;;;14.10;99.90;;;;;;5051933;28;20041;-82
2022/07/18 02:04:14;;;;;;;0.98;0.30;;;14.10;99.90;;;;;;5044106;28;20179;-82
2022/07/18 02:06:40;;;;;;;0.25;0.25;;;14.10;99.90;;;;;;5031450;28;20041;-82
2022/07/18 02:09:06;;;;;;;1.20;0.50;;;14.20;99.90;;;;;;5039650;28;20505;-82
2022/07/18 02:11:33;;;;;;;0.10;0.10;;;14.30;99.90;;;;;;5053768;28;20445;-84
2022/07/18 02:13:59;;;;;;;0.25;0.20;;;14.30;99.90;;;;;;5037260;28;20052;-84
2022/07/18 02:16:24;;;;;;;0.57;0.47;;;14.30;99.90;;;;;;5037039;28;20463;-84
2022/07/18 02:18:50;;;;;;;3.30;2.10;;;14.20;99.90;;;;;;5019365;28;20045;-84
2022/07/18 02:21:16;;;;;;;0.45;0.30;;;14.20;99.90;;;;;;5037723;28;20044;-84
2022/07/18 02:23:43;;;;;;;0.20;0.20;;;14.20;99.90;;;;;;5037058;28;20033;-84
2022/07/18 02:26:09;;;;;;;0.80;0.80;;;14.30;99.90;;;;;;5053690;28;20041;-84
2022/07/18 02:28:35;;;;;;;1.13;0.80;;;14.30;99.90;;;;;;5054235;28;20049;-83
2022/07/18 02:31:01;;;;;;;0.47;0.47;;;14.40;99.90;;;;;;5076783;28;20052;-83
2022/07/18 02:33:26;;;;;;;0.47;0.47;;;14.40;99.90;;;;;;5060678;28;20050;-84
2022/07/18 02:35:52;;;;;;;1.60;1.08;;;14.30;99.90;;;;;;5060433;28;20515;-84
2022/07/18 02:38:18;;;;;;;2.13;1.23;;;14.30;99.90;;;;;;5060302;28;20225;-84
2022/07/18 02:40:44;;;;;;;2.88;2.67;;;14.40;99.90;;;;;;5075934;28;20035;-84
2022/07/18 02:43:09;;;;;;;1.25;1.08;;;14.50;99.90;;;;;;5059824;28;20040;-83
2022/07/18 02:45:35;;;;;;;1.17;1.08;;;14.60;99.90;;;;;;5076769;28;20036;-82
2022/07/18 02:48:01;;;;;;;5.63;0.93;;;14.70;99.90;;;;;;5076507;28;20094;-82
2022/07/18 02:50:27;;;;;;;1.65;1.55;;;14.80;99.90;;;;;;5059578;28;20063;-82
2022/07/18 02:52:53;;;;;;;3.88;0.82;;;14.90;99.90;;;;;;5073686;28;20482;-83
2022/07/18 02:55:20;;;;;;;1.60;1.50;;;14.80;99.90;;;;;;5076264;28;20044;-83
2022/07/18 02:57:46;;;;;;;2.03;1.85;;;14.90;99.90;;;;;;5076291;28;20048;-83
2022/07/18 03:00:14;;;;;;;0.45;0.43;;;14.90;99.90;;;;;;5075464;28;20740;-83
2022/07/18 03:02:40;;;;;;;2.38;2.17;;;14.90;99.90;;;;;;5075818;28;20035;-83
2022/07/18 03:05:06;;;;;;;1.48;1.10;;;14.90;99.90;;;;;;5058941;28;20462;-82
2022/07/18 03:07:31;;;;;;;1.20;0.82;;;14.90;99.90;;;;;;5047174;28;20048;-82
2022/07/18 03:09:57;;;;;;;3.50;1.77;;;14.90;99.90;;;;;;5076399;28;20044;-82
2022/07/18 03:12:23;;;;;;;1.55;1.38;;;14.90;99.90;;;;;;5066199;28;20134;-82
2022/07/18 03:14:49;;;;;;;0.80;0.75;;;15.00;99.90;;;;;;5076028;28;20421;-82
2022/07/18 03:17:14;;;;;;;0.57;0.45;;;15.00;99.90;;;;;;5076273;28;20047;-82
2022/07/18 03:19:41;;;;;;;0.22;0.20;;;15.00;99.90;;;;;;5057180;28;20132;-82
2022/07/18 03:22:06;;;;;;;0.20;0.20;;;14.90;99.90;;;;;;5039947;28;20040;-82
2022/07/18 03:24:32;;;;;;;1.38;0.65;;;14.90;99.90;;;;;;5039217;28;20043;-82
2022/07/18 03:26:58;;;;;;;1.27;0.30;;;14.90;99.90;;;;;;5067733;28;20044;-82
2022/07/18 03:29:24;;;;;;;0.10;0.10;;;14.90;99.90;;;;;;5070691;28;20068;-82
2022/07/18 03:31:50;;;;;;;0.38;0.38;;;14.90;99.90;;;;;;5058800;28;20102;-82
2022/07/18 03:34:16;;;;;;;0.65;0.30;;;14.80;99.90;;;;;;5074349;28;20798;-82
2022/07/18 03:36:42;;;;;;;0.20;0.20;;;14.90;99.90;;;;;;5058937;28;20047;-82
2022/07/18 03:39:09;;;;;;;1.10;1.05;;;15.00;99.90;;;;;;5070032;28;20115;-82
2022/07/18 03:41:36;;;;;;;1.35;0.75;;;15.00;99.90;;;;;;5066936;28;20040;-82
2022/07/18 03:44:02;;;;;;;0.32;0.32;;;15.00;99.90;;;;;;5074389;28;20040;-82
2022/07/18 03:46:28;;;;;;;1.48;1.08;;;15.00;99.90;;;;;;5076141;28;20118;-82
2022/07/18 03:48:54;;;;;;;2.45;0.68;;;15.10;99.90;;;;;;5078779;28;20525;-82
2022/07/18 03:51:19;;;;;;;0.22;0.22;;;15.10;99.90;;;;;;5055615;28;20047;-81
2022/07/18 03:53:45;;;;;;;0.68;0.68;;;15.10;99.90;;;;;;5063959;28;20093;-81
2022/07/18 03:56:11;;;;;;;2.30;0.50;;;15.10;99.90;;;;;;5058908;28;20555;-81
2022/07/18 03:58:37;;;;;;;0.40;0.40;;;15.10;99.90;;;;;;5058639;28;20111;-81
2022/07/18 04:01:03;;;;;;;0.60;0.57;;;15.10;99.90;;;;;;5074668;28;20450;-81
2022/07/18 04:03:29;;;;;;;1.50;0.90;;;15.10;99.90;;;;;;5075136;28;20040;-81
2022/07/18 04:05:55;;;;;;;0.25;0.25;;;15.20;99.90;;;;;;5075243;28;20082;-81
2022/07/18 04:08:20;;;;;;;0.90;0.55;;;15.20;99.90;;;;;;5076020;28;20048;-84
2022/07/18 04:10:46;;;;;;;0.40;0.40;;;15.30;99.90;;;;;;5068974;28;20072;-84
2022/07/18 04:13:12;;;;;;;0.32;0.32;;;15.30;99.90;;;;;;5055838;28;20040;-84
2022/07/18 04:15:38;;;;;;;0.88;0.52;;;15.40;99.90;;;;;;5062803;28;20093;-84
2022/07/18 04:18:05;;;;;;;0.28;0.28;;;15.40;99.90;;;;;;5057779;28;20032;-84
2022/07/18 04:20:31;;;;;;;0.55;0.50;;;15.40;99.90;;;;;;5060075;28;20043;-84
2022/07/18 04:22:59;;;;;;;0.17;0.17;;;15.50;99.90;;;;;;5075552;28;20067;-84
2022/07/18 04:25:32;;;;;;;1.25;0.52;;;15.60;99.90;;;;;;5056392;28;20043;-84
2022/07/18 04:27:58;;;;;;;0.70;0.43;;;15.60;99.90;;;;;;5074705;28;20410;-84
2022/07/18 04:30:26;;;;;;;0.10;0.10;;;15.60;99.90;;;;;;5075529;28;20060;-84
2022/07/18 04:32:53;;;;;;;0.32;0.25;;;15.60;99.90;;;;;;5075610;28;20044;-84
2022/07/18 04:35:20;;;;;;;0.52;0.43;;;15.60;99.90;;;;;;5058361;28;20043;-84
2022/07/18 04:37:46;;;;;;;0.32;0.32;;;15.60;99.90;;;;;;5074455;28;20097;-84
2022/07/18 04:40:12;;;;;;;0.25;0.25;;;15.60;99.90;;;;;;5056295;28;20052;-82
2022/07/18 04:42:38;;;;;;;0.30;0.30;;;15.70;99.90;;;;;;5075686;28;20039;-82
2022/07/18 04:45:05;;;;;;;0.08;0.08;;;15.70;99.90;;;;;;5059416;28;20032;-82
2022/07/18 04:47:31;;;;;;;0.10;0.10;;;15.70;99.90;;;;;;5053597;28;20032;-82
2022/07/18 04:49:57;;;;;;;0.30;0.30;;;15.80;99.90;;;;;;5062764;28;20044;-82
2022/07/18 04:52:23;;;;;;;0.35;0.22;;;15.80;99.90;;;;;;5060628;28;20047;-82
2022/07/18 04:54:50;;;;;;;0.20;0.20;;;15.80;99.90;;;;;;5060057;28;20032;-82
2022/07/18 04:57:16;;;;;;;0.45;0.40;;;15.90;99.90;;;;;;5077590;28;20036;-85
2022/07/18 04:59:42;;;;;;;0.17;0.17;;;15.90;99.90;;;;;;5077634;28;20032;-85
2022/07/18 05:02:11;;;;;;;0.10;0.10;;;15.90;99.90;;;;;;5077657;28;20083;-85
2022/07/18 05:04:38;;;;;;;0.52;0.52;;;16.00;99.90;;;;;;5079199;28;20126;-86
2022/07/18 05:07:05;;;;;;;0.25;0.25;;;16.00;99.90;;;;;;5079107;28;20122;-85
2022/07/18 05:09:30;;;;;;;0.30;0.30;;;16.20;99.90;;;;;;5078308;28;20123;-86
2022/07/18 05:11:56;;;;;;;0.25;0.22;;;16.30;99.90;;;;;;5061690;28;20132;-86
2022/07/18 05:14:22;;;;;;;0.10;0.10;;;16.40;99.90;;;;;;5078479;28;20255;-82
2022/07/18 05:16:48;;;;;;;0.20;0.20;;;16.50;99.90;;;;;;5078345;28;20092;-81
2022/07/18 05:19:17;;;;;;;0.65;0.65;;;16.70;99.90;;;;;;5077925;28;20036;-81
2022/07/18 05:21:43;;;;;;;0.50;0.50;;;16.90;99.90;;;;;;5078503;28;20040;-81
2022/07/18 05:24:09;;;;;;;0.85;0.50;;;17.00;99.90;;;;;;5061804;28;20043;-83
2022/07/18 05:26:35;;;;;;;0.15;0.15;;;17.10;99.90;;;;;;5078139;28;20119;-83
2022/07/18 05:29:01;;;;;;;0.00;0.00;;;17.10;99.90;;;;;;5077527;28;20143;-83
2022/07/18 05:31:27;;;;;;;1.02;0.93;;;17.20;99.90;;;;;;5078244;28;20095;-84
2022/07/18 05:33:52;;;;;;;0.40;0.40;;;17.20;99.90;;;;;;5078243;28;20135;-84
2022/07/18 05:36:18;;;;;;;0.10;0.10;;;17.20;99.90;;;;;;5061488;28;20047;-83
2022/07/18 05:38:44;;;;;;;0.15;0.15;;;17.30;99.90;;;;;;5077907;28;20117;-83
2022/07/18 05:41:09;;;;;;;0.20;0.20;;;17.30;99.90;;;;;;5059929;28;20075;-82
2022/07/18 05:43:35;;;;;;;0.20;0.20;;;17.30;99.90;;;;;;5044888;28;20115;-82
2022/07/18 05:46:01;;;;;;;0.40;0.38;;;17.50;99.90;;;;;;5078216;28;20040;-82
2022/07/18 05:48:27;;;;;;;0.28;0.20;;;17.60;99.90;;;;;;5061111;28;20087;-85
2022/07/18 05:50:53;;;;;;;0.10;0.10;;;17.70;99.90;;;;;;5060719;28;20044;-85
2022/07/18 05:53:19;;;;;;;1.30;0.45;;;17.80;99.90;;;;;;5078051;28;20050;-85
2022/07/18 05:55:44;;;;;;;0.90;0.30;;;17.90;99.90;;;;;;5078110;28;20520;-85
2022/07/18 05:58:10;;;;;;;0.03;0.03;;;18.00;99.90;;;;;;5044362;28;20063;-85
2022/07/18 06:00:36;;;;;;;0.20;0.20;;;18.10;99.90;;;;;;5076494;28;20071;-85
2022/07/18 06:03:01;;;;;;;0.10;0.10;;;18.30;99.90;;;;;;5060830;28;20080;-83
2022/07/18 06:05:27;;;;;;;0.15;0.15;;;18.40;99.90;;;;;;5060684;28;20047;-82
2022/07/18 06:07:54;;;;;;;0.10;0.10;;;18.50;99.90;;;;;;5060640;28;20127;-82
2022/07/18 06:10:21;;;;;;;0.20;0.20;;;18.70;99.90;;;;;;5077349;28;20044;-82
2022/07/18 06:12:47;;;;;;;0.57;0.57;;;18.90;99.90;;;;;;5076638;28;20483;-83
2022/07/18 06:15:14;;;;;;;0.20;0.20;;;19.10;99.90;;;;;;5059442;28;20044;-83
2022/07/18 06:17:39;;;;;;;0.13;0.13;;;19.70;99.90;;;;;;5043539;28;20029;-83
2022/07/18 06:20:07;;;;;;;0.30;0.20;;;19.90;99.90;;;;;;5077485;28;20118;-85
2022/07/18 06:22:34;;;;;;;0.52;0.50;;;20.60;99.90;;;;;;5060432;28;20055;-85
2022/07/18 06:25:01;;;;;;;0.32;0.25;;;21.30;99.90;;;;;;5040945;28;20368;-85
2022/07/18 06:27:26;;;;;;;0.13;0.13;;;21.70;99.90;;;;;;5040519;28;20036;-85
2022/07/18 06:29:52;;;;;;;0.30;0.30;;;22.30;99.90;;;;;;5007566;28;20052;-85
2022/07/18 06:32:18;;;;;;;0.85;0.85;;;23.20;99.90;;;;;;5058122;28;20044;-85
2022/07/18 06:34:44;;;;;;;0.30;0.30;;;23.60;97.50;;;;;;5059519;28;20052;-84
2022/07/18 06:37:09;;;;;;;1.25;0.40;;;24.10;97.10;;;;;;5039787;28;20123;-82
2022/07/18 06:39:35;;;;;;;0.00;0.00;;;24.50;95.70;;;;;;5057023;28;20037;-82
2022/07/18 06:42:01;;;;;;;0.20;0.20;;;24.80;95.40;;;;;;5057197;28;20036;-82
2022/07/18 06:44:26;;;;;;;0.22;0.22;;;25.60;95.20;;;;;;5059220;28;20028;-82
2022/07/18 06:46:52;;;;;;;1.25;0.60;;;26.80;93.50;;;;;;5059417;28;20115;-82
2022/07/18 06:49:19;;;;;;;0.85;0.40;;;28.70;92.30;;;;;;5076120;28;20561;-83
2022/07/18 06:51:44;;;;;;;0.10;0.10;;;28.80;90.10;;;;;;5075644;28;20085;-83
2022/07/18 06:54:10;;;;;;;0.17;0.17;;;29.50;90.80;;;;;;5060195;28;20044;-84
2022/07/18 06:56:36;;;;;;;0.40;0.40;;;29.80;88.70;;;;;;5055150;28;20509;-85
2022/07/18 06:59:02;;;;;;;0.10;0.10;;;30.00;81.50;;;;;;5039532;28;20075;-85
2022/07/18 07:01:28;;;;;;;0.10;0.10;;;30.20;78.20;;;;;;5066794;28;20032;-85
2022/07/18 07:03:54;;;;;;;0.52;0.32;;;30.30;79.10;;;;;;5042995;28;20435;-85
2022/07/18 07:06:19;;;;;;;1.45;0.35;;;30.60;82.70;;;;;;5057773;28;20084;-85
2022/07/18 07:08:45;;;;;;;0.80;0.80;;;30.70;78.50;;;;;;5059973;28;20040;-85
2022/07/18 07:11:11;;;;;;;0.63;0.63;;;30.60;74.70;;;;;;5043183;28;20043;-85
2022/07/18 07:13:37;;;;;;;0.28;0.20;;;31.10;76.10;;;;;;5059169;28;20412;-85
2022/07/18 07:16:03;;;;;;;0.75;0.73;;;32.30;73.70;;;;;;5058792;28;20040;-85
2022/07/18 07:18:28;;;;;;;1.15;0.80;;;32.30;72.80;;;;;;5074869;28;20478;-85
2022/07/18 07:20:54;;;;;;;0.75;0.55;;;33.00;72.60;;;;;;5076033;28;20141;-85
2022/07/18 07:23:20;;;;;;;0.47;0.47;;;33.60;72.40;;;;;;5053575;28;20040;-85
2022/07/18 07:25:45;;;;;;;0.43;0.43;;;33.20;68.80;;;;;;5030253;28;20095;-85
2022/07/18 07:28:11;;;;;;;0.10;0.10;;;33.40;73.90;;;;;;5059325;28;20046;-87
2022/07/18 07:30:37;;;;;;;0.25;0.25;;;33.40;67.30;;;;;;5038139;28;20053;-87
2022/07/18 07:33:03;;;;;;;0.20;0.20;;;33.20;71.50;;;;;;5035882;28;20049;-86
2022/07/18 07:35:29;;;;;;;0.57;0.28;;;32.60;69.80;;;;;;5035156;28;20029;-86
2022/07/18 07:37:57;;;;;;;0.30;0.30;;;32.10;68.40;;;;;;5051410;28;20388;-86
2022/07/18 07:40:25;;;;;;;0.35;0.35;;;31.50;70.00;;;;;;5050661;28;20127;-86
2022/07/18 07:42:51;;;;;;;0.35;0.35;;;31.50;71.30;;;;;;5050825;28;20037;-83
2022/07/18 07:45:18;;;;;;;0.10;0.10;;;32.00;70.30;;;;;;5037830;28;20043;-83
2022/07/18 07:47:44;;;;;;;0.20;0.20;;;32.80;67.20;;;;;;5047892;28;20048;-83
2022/07/18 07:50:11;;;;;;;0.20;0.20;;;32.70;66.20;;;;;;5017625;28;20433;-83
2022/07/18 07:52:38;;;;;;;0.20;0.20;;;33.40;68.50;;;;;;5050869;28;20041;-83
2022/07/18 07:55:05;;;;;;;0.43;0.43;;;34.30;69.20;;;;;;5050542;28;20037;-83
2022/07/18 07:57:31;;;;;;;0.25;0.25;;;34.70;65.90;;;;;;5035084;28;20213;-83
2022/07/18 07:59:57;;;;;;;0.38;0.38;;;34.60;65.90;;;;;;5031113;28;20195;-83
2022/07/18 08:02:22;;;;;;;0.20;0.20;;;34.80;65.90;;;;;;5035144;28;20128;-84
2022/07/18 08:04:49;;;;;;;0.50;0.50;;;34.70;63.20;;;;;;5016366;28;20033;-83
2022/07/18 08:07:16;;;;;;;0.43;0.43;;;34.40;61.40;;;;;;5015364;28;20048;-83
2022/07/18 08:09:41;;;;;;;0.20;0.20;;;34.60;62.40;;;;;;5044518;28;20071;-84
2022/07/18 08:12:07;;;;;;;0.20;0.20;;;34.30;63.90;;;;;;5032160;28;20037;-84
2022/07/18 08:14:37;;;;;;;0.25;0.25;;;33.50;64.00;;;;;;5072245;22;20552;-86
2022/07/18 08:17:03;;;;;;;0.30;0.30;;;32.60;64.60;;;;;;5043744;28;20041;-86
2022/07/18 08:19:29;;;;;;;1.27;1.05;;;32.80;65.40;;;;;;5033785;28;20430;-85
2022/07/18 08:21:55;;;;;;;0.20;0.20;;;33.10;63.30;;;;;;5022556;28;20048;-85
2022/07/18 08:24:20;;;;;;;0.17;0.17;;;33.70;63.00;;;;;;5049573;28;20051;-86
2022/07/18 08:26:46;;;;;;;0.30;0.30;;;34.30;63.30;;;;;;5038808;28;20041;-86
2022/07/18 08:29:12;;;;;;;0.20;0.20;;;34.60;63.90;;;;;;5055998;28;20045;-85
2022/07/18 08:31:37;;;;;;;0.00;0.00;;;34.60;62.00;;;;;;5045025;28;20542;-86
2022/07/18 08:34:03;;;;;;;0.00;0.00;;;35.30;62.90;;;;;;5058144;28;20453;-83
2022/07/18 08:36:29;;;;;;;0.17;0.17;;;35.90;61.80;;;;;;5021699;28;20521;-83
2022/07/18 08:38:54;;;;;;;0.20;0.20;;;36.40;62.00;;;;;;5038609;28;20072;-83
2022/07/18 08:41:23;;;;;;;0.10;0.10;;;36.60;61.30;;;;;;5053793;28;20207;-83
2022/07/18 08:43:49;;;;;;;0.22;0.20;;;36.20;60.70;;;;;;5054394;28;20051;-83
2022/07/18 08:46:21;;;;;;;0.10;0.10;;;35.80;60.00;;;;;;5037753;28;20037;-83
2022/07/18 08:48:48;;;;;;;0.10;0.10;;;35.60;61.80;;;;;;5054526;28;20041;-83
2022/07/18 08:51:14;;;;;;;0.38;0.38;;;34.90;60.80;;;;;;5022582;28;20454;-86
2022/07/18 08:53:40;;;;;;;0.30;0.30;;;34.60;60.90;;;;;;5054293;28;20036;-86
2022/07/18 08:56:06;;;;;;;0.25;0.25;;;34.70;61.10;;;;;;5018519;28;20036;-85
2022/07/18 08:58:32;;;;;;;0.20;0.20;;;35.30;61.30;;;;;;5049151;28;20483;-86
2022/07/18 09:00:58;;;;;;;0.50;0.47;;;36.00;61.80;;;;;;5038494;28;20124;-85
2022/07/18 09:03:25;;;;;;;0.25;0.25;;;37.00;61.90;;;;;;5037455;28;20140;-86
2022/07/18 09:06:04;;;;;;;0.13;0.13;;;37.70;58.80;;;;;;5054414;28;20039;-86
2022/07/18 09:08:30;;;;;;;0.75;0.57;;;38.00;60.10;;;;;;5054288;28;20053;-85
2022/07/18 09:10:58;;;;;;;0.10;0.10;;;38.10;58.30;;;;;;5038101;28;20041;-85
2022/07/18 09:13:44;;;;;;;0.32;0.32;;;37.90;59.00;;;;;;5053631;28;20041;-85
2022/07/18 09:16:11;;;;;;;0.10;0.10;;;37.60;58.00;;;;;;5055247;28;20463;-86
2022/07/18 09:18:40;;;;;;;0.20;0.20;;;37.40;58.00;;;;;;5036859;28;20489;-86
2022/07/18 09:21:12;;;;;;;0.10;0.10;;;37.70;58.80;;;;;;5054482;28;20120;-85
2022/07/18 09:23:43;;;;;;;0.20;0.20;;;37.90;58.50;;;;;;5052713;28;20037;-84
2022/07/18 09:26:10;;;;;;;0.30;0.30;;;38.30;56.20;;;;;;5037491;28;20041;-84
2022/07/18 09:28:56;;;;;;;0.10;0.10;;;38.70;56.90;;;;;;5038258;28;20037;-85
2022/07/18 09:31:25;;;;;;;1.25;0.40;;;39.00;57.20;;;;;;5038374;28;20407;-86
2022/07/18 09:33:54;;;;;;;0.30;0.30;;;38.90;57.30;;;;;;5052229;28;20510;-85
2022/07/18 09:36:21;;;;;;;0.30;0.30;;;38.50;56.70;;;;;;5037907;28;20459;-85
2022/07/18 09:38:47;;;;;;;0.73;0.30;;;38.20;56.00;;;;;;5054375;28;20112;-85
2022/07/18 09:41:13;;;;;;;0.20;0.20;;;38.20;55.00;;;;;;5054625;28;20112;-84
2022/07/18 09:43:40;;;;;;;0.13;0.13;;;38.20;56.30;;;;;;5053802;28;20509;-84
2022/07/18 09:46:07;;;;;;;0.15;0.15;;;38.20;56.60;;;;;;5035697;28;20036;-85
2022/07/18 09:48:33;;;;;;;0.10;0.10;;;38.30;55.30;;;;;;5051839;28;20056;-85
2022/07/18 09:51:04;;;;;;;0.17;0.17;;;38.30;56.60;;;;;;5053235;28;20123;-85
2022/07/18 09:53:31;;;;;;;1.00;0.47;;;38.00;56.10;;;;;;5054260;28;20044;-85
2022/07/18 09:55:58;;;;;;;0.10;0.10;;;37.50;56.20;;;;;;5036972;28;20076;-85
2022/07/18 09:58:30;;;;;;;0.70;0.55;;;37.20;56.60;;;;;;5054202;28;20072;-85
2022/07/18 10:00:57;;;;;;;1.38;1.20;;;37.00;55.40;;;;;;5052306;28;20037;-85
2022/07/18 10:03:23;;;;;;;0.10;0.10;;;37.30;55.90;;;;;;5054637;28;20371;-85
2022/07/18 10:05:51;;;;;;;0.00;0.00;;;37.50;56.20;;;;;;5036353;28;20032;-85
2022/07/18 10:08:21;;;;;;;0.10;0.10;;;38.10;56.00;;;;;;5036475;28;20099;-85
2022/07/18 10:10:49;;;;;;;0.30;0.25;;;38.20;54.90;;;;;;5036853;28;20051;-85
2022/07/18 10:13:16;;;;;;;0.32;0.32;;;38.50;55.20;;;;;;5053323;28;20045;-85
2022/07/18 10:15:44;;;;;;;0.75;0.63;;;38.90;55.60;;;;;;5052496;28;20495;-85
2022/07/18 10:18:17;;;;;;;0.10;0.10;;;39.10;54.70;;;;;;5036307;28;20465;-85
2022/07/18 10:21:02;;;;;;;0.20;0.20;;;39.40;55.00;;;;;;5036824;28;20037;-85
2022/07/18 10:23:43;;;;;;;0.28;0.28;;;39.60;54.70;;;;;;5053384;28;20505;-85
2022/07/18 10:26:23;;;;;;;0.45;0.45;;;40.20;53.60;;;;;;5035770;28;20044;-85
2022/07/18 10:28:55;;;;;;;0.95;0.90;;;40.20;54.20;;;;;;5053158;28;20445;-85
2022/07/18 10:31:58;;;;;;;2.20;0.50;;;40.30;54.50;;;;;;5053304;28;20552;-85
2022/07/18 10:34:31;;;;;;;0.15;0.15;;;40.30;53.80;;;;;;5053383;28;20051;-85
2022/07/18 10:37:00;;;;;;;0.20;0.20;;;39.70;53.50;;;;;;5034491;28;20045;-85
2022/07/18 10:39:35;;;;;;;0.30;0.30;;;39.30;53.60;;;;;;5035377;28;20124;-84
2022/07/18 10:42:01;;;;;;;;;;;38.80;53.50;;;;;;5050239;28;20041;-84
2022/07/18 10:44:29;;;;;;;0.30;0.30;;;38.00;53.20;;;;;;5035547;28;19916;-84
2022/07/18 10:47:17;;;;;;;0.25;0.25;;;37.60;55.50;;;;;;5053288;28;20040;-85
2022/07/18 10:49:52;;;;;;;0.20;0.20;;;38.00;54.70;;;;;;5049206;28;20083;-84
2022/07/18 10:52:30;;;;;;;0.30;0.30;;;38.30;53.20;;;;;;5052327;28;20044;-84
2022/07/18 10:55:04;;;;;;;0.20;0.20;;;38.80;53.10;;;;;;5053067;28;20043;-84
2022/07/18 10:57:37;;;;;;;0.75;0.75;;;39.40;54.20;;;;;;5035966;28;20118;-85
2022/07/18 11:00:07;;;;;;;0.25;0.22;;;39.50;54.40;;;;;;5039095;28;20037;-85
2022/07/18 11:02:37;;;;;;;1.65;0.17;;;39.70;52.50;;;;;;5040121;28;20044;-84
2022/07/18 11:05:26;;;;;;;0.50;0.50;;;40.00;52.40;;;;;;5049003;28;20115;-85
2022/07/18 11:07:58;;;;;;;0.38;0.38;;;40.20;51.80;;;;;;5052348;28;20070;-85
2022/07/18 11:10:53;;;;;;;0.10;0.10;;;40.20;51.70;;;;;;5047425;28;20060;-85
2022/07/18 11:13:28;;;;;;;0.30;0.30;;;39.90;52.20;;;;;;5046561;28;20053;-85
2022/07/18 11:16:06;;;;;;;1.00;0.65;;;39.30;52.00;;;;;;5045907;28;20064;-85
2022/07/18 11:18:55;;;;;;;0.20;0.20;;;39.10;52.30;;;;;;5044122;28;20036;-85
2022/07/18 11:21:22;;;;;;;0.10;0.10;;;38.10;52.00;;;;;;5019548;28;20057;-85
2022/07/18 11:23:53;;;;;;;0.22;0.22;;;37.10;52.00;;;;;;5045846;28;20525;-85
2022/07/18 11:26:21;;;;;;;0.52;0.47;;;36.00;53.20;;;;;;5049850;28;20052;-85
2022/07/18 11:28:50;;;;;;;0.52;0.52;;;35.00;52.90;;;;;;5027774;28;20041;-85
2022/07/18 11:31:16;;;;;;;0.68;0.63;;;34.20;54.40;;;;;;5035296;28;20076;-85
2022/07/18 11:33:48;;;;;;;0.30;0.30;;;33.60;54.50;;;;;;5023440;28;20071;-85
2022/07/18 11:36:16;;;;;;;0.28;0.28;;;33.00;55.20;;;;;;5045595;28;20103;-85
2022/07/18 11:38:52;;;;;;;0.52;0.38;;;32.70;57.10;;;;;;5042975;28;20042;-84
2022/07/18 11:41:19;;;;;;;0.10;0.10;;;32.60;57.00;;;;;;5050207;28;20041;-84
2022/07/18 11:43:47;;;;;;;0.98;0.30;;;32.70;55.40;;;;;;5052717;28;20518;-85
2022/07/18 11:46:14;;;;;;;0.20;0.20;;;32.80;55.40;;;;;;5042506;28;20038;-84
2022/07/18 11:48:42;;;;;;;0.95;0.30;;;33.00;57.30;;;;;;5035527;28;20060;-84
2022/07/18 11:51:13;;;;;;;0.20;0.20;;;33.00;55.00;;;;;;5035685;28;20041;-84
2022/07/18 11:53:45;;;;;;;0.50;0.40;;;32.90;55.70;;;;;;5038551;28;20505;-84
2022/07/18 11:56:12;;;;;;;0.95;0.95;;;32.60;55.00;;;;;;5052532;28;20049;-84
2022/07/18 11:58:39;;;;;;;0.75;0.65;;;32.60;57.80;;;;;;5036058;28;20037;-84
2022/07/18 12:01:06;;;;;;;0.35;0.35;;;32.80;57.50;;;;;;5035497;28;20482;-84
2022/07/18 12:03:35;;;;;;;0.32;0.32;;;32.90;56.00;;;;;;5051708;28;20091;-84
2022/07/18 12:06:14;;;;;;;0.35;0.22;;;32.90;57.20;;;;;;5051924;28;20040;-84
2022/07/18 12:08:44;;;;;;;0.52;0.43;;;33.30;57.50;;;;;;5032698;28;20037;-84
2022/07/18 12:11:25;;;;;;;0.30;0.30;;;34.10;57.10;;;;;;5043222;28;20055;-85
2022/07/18 12:14:02;;;;;;;0.13;0.13;;;34.80;55.90;;;;;;5051871;28;20399;-85
2022/07/18 12:16:44;;;;;;;1.00;0.57;;;35.40;54.90;;;;;;5051934;28;20043;-85
2022/07/18 12:19:17;;;;;;;0.20;0.20;;;35.70;57.00;;;;;;5044254;28;20037;-85
2022/07/18 12:21:56;;;;;;;0.80;0.55;;;36.20;55.20;;;;;;5052566;28;20040;-85
2022/07/18 12:24:27;;;;;;;0.30;0.30;;;36.50;54.80;;;;;;5051579;28;20047;-86
2022/07/18 12:27:16;;;;;;;0.30;0.30;;;36.90;56.00;;;;;;5051866;28;20155;-86
2022/07/18 12:30:04;;;;;;;0.38;0.38;;;37.00;54.70;;;;;;5052669;28;20053;-86
2022/07/18 12:32:30;;;;;;;0.10;0.10;;;36.80;54.40;;;;;;5032163;28;20045;-85
2022/07/18 12:35:06;;;;;;;0.45;0.45;;;36.90;54.80;;;;;;5049197;28;20037;-86
2022/07/18 12:37:32;;;;;;;0.20;0.20;;;36.80;54.50;;;;;;5052197;28;20037;-85
2022/07/18 12:40:11;;;;;;;0.20;0.20;;;36.80;54.70;;;;;;5051923;28;20127;-85
2022/07/18 12:42:39;;;;;;;2.17;1.35;;;37.00;55.50;;;;;;5033524;28;20033;-85
2022/07/18 12:45:05;;;;;;;0.55;0.47;;;37.30;55.00;;;;;;5058575;28;20040;-85
2022/07/18 12:47:31;;;;;;;0.55;0.52;;;37.70;54.10;;;;;;5049679;28;20052;-85
2022/07/18 12:49:56;;;;;;;0.00;0.00;;;38.00;53.20;;;;;;5035397;28;20037;-85
2022/07/18 12:52:23;;;;;;;0.20;0.20;;;37.60;53.60;;;;;;5035073;28;20064;-84
2022/07/18 12:54:49;;;;;;;0.13;0.13;;;36.90;53.30;;;;;;5051147;28;20053;-85